sensor_id;sensor_type;location;lat;lon;timestamp;P1;durP1;ratioP1;P2;durP2;ratioP2
5042;SDS011;2540;50.928;6.856;2023-07-09T00:00:02;8.90;;;5.30;;
5042;SDS011;2540;50.928;6.856;2023-07-09T00:02:28;11.33;;;5.67;;
5042;SDS011;2540;50.928;6.856;2023-07-09T00:04:54;9.13;;;4.90;;
5042;SDS011;2540;50.928;6.856;2023-07-09T00:09:49;12.43;;;5.47;;
5042;SDS011;2540;50.928;6.856;2023-07-09T00:12:15;8.00;;;5.17;;
5042;SDS011;2540;50.928;6.856;2023-07-09T00:14:42;11.40;;;5.20;;
5042;SDS011;2540;50.928;6.856;2023-07-09T00:17:11;9.23;;;5.70;;
5042;SDS011;2540;50.928;6.856;2023-07-09T00:19:41;15.80;;;6.23;;
5042;SDS011;2540;50.928;6.856;2023-07-09T00:22:13;9.73;;;5.33;;
5042;SDS011;2540;50.928;6.856;2023-07-09T00:24:42;11.40;;;5.70;;
5042;SDS011;2540;50.928;6.856;2023-07-09T00:27:17;20.20;;;6.40;;
5042;SDS011;2540;50.928;6.856;2023-07-09T00:29:43;9.00;;;5.67;;
5042;SDS011;2540;50.928;6.856;2023-07-09T00:32:16;10.13;;;5.50;;
5042;SDS011;2540;50.928;6.856;2023-07-09T00:34:43;9.43;;;5.27;;
5042;SDS011;2540;50.928;6.856;2023-07-09T00:37:13;8.63;;;5.07;;
5042;SDS011;2540;50.928;6.856;2023-07-09T00:39:40;9.73;;;6.33;;
5042;SDS011;2540;50.928;6.856;2023-07-09T00:42:09;11.67;;;6.43;;
5042;SDS011;2540;50.928;6.856;2023-07-09T00:44:37;10.70;;;5.10;;
5042;SDS011;2540;50.928;6.856;2023-07-09T00:49:32;8.77;;;5.70;;
5042;SDS011;2540;50.928;6.856;2023-07-09T00:52:00;11.43;;;5.73;;
5042;SDS011;2540;50.928;6.856;2023-07-09T00:54:36;11.37;;;6.20;;
5042;SDS011;2540;50.928;6.856;2023-07-09T00:57:11;11.43;;;5.40;;
5042;SDS011;2540;50.928;6.856;2023-07-09T00:59:42;9.77;;;5.77;;
5042;SDS011;2540;50.928;6.856;2023-07-09T01:02:07;8.70;;;5.77;;
5042;SDS011;2540;50.928;6.856;2023-07-09T01:04:33;14.10;;;6.40;;
5042;SDS011;2540;50.928;6.856;2023-07-09T01:06:58;10.70;;;5.63;;
5042;SDS011;2540;50.928;6.856;2023-07-09T01:09:24;9.17;;;6.10;;
5042;SDS011;2540;50.928;6.856;2023-07-09T01:11:50;11.03;;;5.20;;
5042;SDS011;2540;50.928;6.856;2023-07-09T01:14:16;11.40;;;6.10;;
5042;SDS011;2540;50.928;6.856;2023-07-09T01:16:46;9.23;;;5.37;;
5042;SDS011;2540;50.928;6.856;2023-07-09T01:19:14;8.17;;;5.20;;
5042;SDS011;2540;50.928;6.856;2023-07-09T01:21:41;9.90;;;6.20;;
5042;SDS011;2540;50.928;6.856;2023-07-09T01:24:13;10.10;;;6.03;;
5042;SDS011;2540;50.928;6.856;2023-07-09T01:26:40;18.00;;;5.97;;
5042;SDS011;2540;50.928;6.856;2023-07-09T01:29:05;12.47;;;6.10;;
5042;SDS011;2540;50.928;6.856;2023-07-09T01:31:31;10.47;;;6.00;;
5042;SDS011;2540;50.928;6.856;2023-07-09T01:33:57;11.73;;;6.43;;
5042;SDS011;2540;50.928;6.856;2023-07-09T01:36:23;19.43;;;6.30;;
5042;SDS011;2540;50.928;6.856;2023-07-09T01:38:49;14.90;;;5.87;;
5042;SDS011;2540;50.928;6.856;2023-07-09T01:41:15;11.87;;;6.10;;
5042;SDS011;2540;50.928;6.856;2023-07-09T01:43:42;11.83;;;6.10;;
5042;SDS011;2540;50.928;6.856;2023-07-09T01:46:09;14.93;;;5.90;;
5042;SDS011;2540;50.928;6.856;2023-07-09T01:48:35;14.10;;;6.27;;
5042;SDS011;2540;50.928;6.856;2023-07-09T01:51:06;9.70;;;6.07;;
5042;SDS011;2540;50.928;6.856;2023-07-09T01:53:32;9.27;;;5.40;;
5042;SDS011;2540;50.928;6.856;2023-07-09T01:55:58;10.93;;;6.10;;
5042;SDS011;2540;50.928;6.856;2023-07-09T01:58:24;9.83;;;5.83;;
5042;SDS011;2540;50.928;6.856;2023-07-09T02:00:50;10.87;;;6.67;;
5042;SDS011;2540;50.928;6.856;2023-07-09T02:03:15;14.30;;;6.53;;
5042;SDS011;2540;50.928;6.856;2023-07-09T02:05:42;9.37;;;5.83;;
5042;SDS011;2540;50.928;6.856;2023-07-09T02:08:08;14.80;;;5.93;;
5042;SDS011;2540;50.928;6.856;2023-07-09T02:10:33;11.00;;;6.40;;
5042;SDS011;2540;50.928;6.856;2023-07-09T02:12:58;9.67;;;5.63;;
5042;SDS011;2540;50.928;6.856;2023-07-09T02:15:24;15.30;;;7.53;;
5042;SDS011;2540;50.928;6.856;2023-07-09T02:17:49;17.33;;;6.43;;
5042;SDS011;2540;50.928;6.856;2023-07-09T02:20:15;11.80;;;6.73;;
5042;SDS011;2540;50.928;6.856;2023-07-09T02:22:40;11.87;;;6.40;;
5042;SDS011;2540;50.928;6.856;2023-07-09T02:25:06;12.40;;;6.70;;
5042;SDS011;2540;50.928;6.856;2023-07-09T02:27:33;13.33;;;6.30;;
5042;SDS011;2540;50.928;6.856;2023-07-09T02:29:59;11.27;;;6.10;;
5042;SDS011;2540;50.928;6.856;2023-07-09T02:32:26;11.37;;;6.50;;
5042;SDS011;2540;50.928;6.856;2023-07-09T02:34:52;9.20;;;6.10;;
5042;SDS011;2540;50.928;6.856;2023-07-09T02:37:18;12.10;;;6.77;;
5042;SDS011;2540;50.928;6.856;2023-07-09T02:39:44;16.33;;;7.17;;
5042;SDS011;2540;50.928;6.856;2023-07-09T02:42:10;10.90;;;6.10;;
5042;SDS011;2540;50.928;6.856;2023-07-09T02:44:39;13.53;;;6.70;;
5042;SDS011;2540;50.928;6.856;2023-07-09T02:47:05;13.67;;;5.90;;
5042;SDS011;2540;50.928;6.856;2023-07-09T02:49:31;11.27;;;6.00;;
5042;SDS011;2540;50.928;6.856;2023-07-09T02:51:56;13.53;;;6.43;;
5042;SDS011;2540;50.928;6.856;2023-07-09T02:54:21;12.53;;;6.77;;
5042;SDS011;2540;50.928;6.856;2023-07-09T02:56:47;10.90;;;6.10;;
5042;SDS011;2540;50.928;6.856;2023-07-09T02:59:12;17.63;;;6.60;;
5042;SDS011;2540;50.928;6.856;2023-07-09T03:01:39;12.40;;;6.77;;
5042;SDS011;2540;50.928;6.856;2023-07-09T03:04:04;11.77;;;6.30;;
5042;SDS011;2540;50.928;6.856;2023-07-09T03:06:30;12.23;;;6.30;;
5042;SDS011;2540;50.928;6.856;2023-07-09T03:08:59;9.63;;;5.57;;
5042;SDS011;2540;50.928;6.856;2023-07-09T03:11:27;8.77;;;5.80;;
5042;SDS011;2540;50.928;6.856;2023-07-09T03:13:53;14.50;;;6.77;;
5042;SDS011;2540;50.928;6.856;2023-07-09T03:16:19;10.97;;;7.20;;
5042;SDS011;2540;50.928;6.856;2023-07-09T03:18:44;12.00;;;6.43;;
5042;SDS011;2540;50.928;6.856;2023-07-09T03:21:10;17.60;;;7.37;;
5042;SDS011;2540;50.928;6.856;2023-07-09T03:23:35;10.80;;;6.57;;
5042;SDS011;2540;50.928;6.856;2023-07-09T03:26:01;16.20;;;6.70;;
5042;SDS011;2540;50.928;6.856;2023-07-09T03:28:26;10.47;;;6.13;;
5042;SDS011;2540;50.928;6.856;2023-07-09T03:30:53;12.90;;;6.70;;
5042;SDS011;2540;50.928;6.856;2023-07-09T03:33:19;19.93;;;7.33;;
5042;SDS011;2540;50.928;6.856;2023-07-09T03:35:44;9.73;;;6.70;;
5042;SDS011;2540;50.928;6.856;2023-07-09T03:38:10;15.67;;;7.20;;
5042;SDS011;2540;50.928;6.856;2023-07-09T03:40:36;12.63;;;6.50;;
5042;SDS011;2540;50.928;6.856;2023-07-09T03:43:02;33.63;;;7.47;;
5042;SDS011;2540;50.928;6.856;2023-07-09T03:45:28;11.83;;;6.37;;
5042;SDS011;2540;50.928;6.856;2023-07-09T03:47:54;8.40;;;6.00;;
5042;SDS011;2540;50.928;6.856;2023-07-09T03:50:21;14.10;;;6.60;;
5042;SDS011;2540;50.928;6.856;2023-07-09T03:52:46;15.87;;;6.37;;
5042;SDS011;2540;50.928;6.856;2023-07-09T03:55:12;10.63;;;6.07;;
5042;SDS011;2540;50.928;6.856;2023-07-09T03:57:38;12.90;;;6.50;;
5042;SDS011;2540;50.928;6.856;2023-07-09T04:00:03;12.13;;;6.80;;
5042;SDS011;2540;50.928;6.856;2023-07-09T04:02:29;13.40;;;6.67;;
5042;SDS011;2540;50.928;6.856;2023-07-09T04:04:55;14.00;;;6.30;;
5042;SDS011;2540;50.928;6.856;2023-07-09T04:07:20;11.23;;;6.00;;
5042;SDS011;2540;50.928;6.856;2023-07-09T04:09:45;11.50;;;6.67;;
5042;SDS011;2540;50.928;6.856;2023-07-09T04:12:11;11.70;;;6.20;;
5042;SDS011;2540;50.928;6.856;2023-07-09T04:14:36;10.33;;;5.90;;
5042;SDS011;2540;50.928;6.856;2023-07-09T04:17:02;15.30;;;7.70;;
5042;SDS011;2540;50.928;6.856;2023-07-09T04:19:27;11.63;;;6.93;;
5042;SDS011;2540;50.928;6.856;2023-07-09T04:21:53;13.90;;;6.97;;
5042;SDS011;2540;50.928;6.856;2023-07-09T04:24:19;11.33;;;6.60;;
5042;SDS011;2540;50.928;6.856;2023-07-09T04:26:44;15.17;;;6.60;;
5042;SDS011;2540;50.928;6.856;2023-07-09T04:29:10;10.57;;;6.27;;
5042;SDS011;2540;50.928;6.856;2023-07-09T04:31:35;12.90;;;6.10;;
5042;SDS011;2540;50.928;6.856;2023-07-09T04:34:02;9.37;;;6.47;;
5042;SDS011;2540;50.928;6.856;2023-07-09T04:36:28;12.03;;;7.10;;
5042;SDS011;2540;50.928;6.856;2023-07-09T04:38:53;13.93;;;5.77;;
5042;SDS011;2540;50.928;6.856;2023-07-09T04:41:19;11.70;;;5.83;;
5042;SDS011;2540;50.928;6.856;2023-07-09T04:43:44;9.70;;;5.90;;
5042;SDS011;2540;50.928;6.856;2023-07-09T04:46:09;12.03;;;6.20;;
5042;SDS011;2540;50.928;6.856;2023-07-09T04:48:35;12.90;;;6.70;;
5042;SDS011;2540;50.928;6.856;2023-07-09T04:51:00;10.27;;;5.97;;
5042;SDS011;2540;50.928;6.856;2023-07-09T04:53:25;12.33;;;6.33;;
5042;SDS011;2540;50.928;6.856;2023-07-09T04:55:51;9.80;;;5.90;;
5042;SDS011;2540;50.928;6.856;2023-07-09T04:58:17;15.13;;;5.63;;
5042;SDS011;2540;50.928;6.856;2023-07-09T05:00:43;14.27;;;5.90;;
5042;SDS011;2540;50.928;6.856;2023-07-09T05:03:09;17.73;;;6.30;;
5042;SDS011;2540;50.928;6.856;2023-07-09T05:05:34;9.60;;;5.90;;
5042;SDS011;2540;50.928;6.856;2023-07-09T05:07:59;13.70;;;5.60;;
5042;SDS011;2540;50.928;6.856;2023-07-09T05:10:25;11.93;;;6.10;;
5042;SDS011;2540;50.928;6.856;2023-07-09T05:12:51;11.33;;;5.80;;
5042;SDS011;2540;50.928;6.856;2023-07-09T05:15:18;8.93;;;5.63;;
5042;SDS011;2540;50.928;6.856;2023-07-09T05:17:44;15.30;;;5.97;;
5042;SDS011;2540;50.928;6.856;2023-07-09T05:20:11;14.40;;;5.10;;
5042;SDS011;2540;50.928;6.856;2023-07-09T05:22:36;12.87;;;5.80;;
5042;SDS011;2540;50.928;6.856;2023-07-09T05:25:02;16.93;;;5.97;;
5042;SDS011;2540;50.928;6.856;2023-07-09T05:27:27;15.20;;;5.70;;
5042;SDS011;2540;50.928;6.856;2023-07-09T05:29:52;10.07;;;5.27;;
5042;SDS011;2540;50.928;6.856;2023-07-09T05:32:18;10.43;;;5.67;;
5042;SDS011;2540;50.928;6.856;2023-07-09T05:34:43;10.50;;;5.60;;
5042;SDS011;2540;50.928;6.856;2023-07-09T05:37:08;9.70;;;5.67;;
5042;SDS011;2540;50.928;6.856;2023-07-09T05:39:34;12.40;;;5.50;;
5042;SDS011;2540;50.928;6.856;2023-07-09T05:41:59;8.47;;;5.10;;
5042;SDS011;2540;50.928;6.856;2023-07-09T05:44:24;11.73;;;6.30;;
5042;SDS011;2540;50.928;6.856;2023-07-09T05:46:50;11.60;;;5.50;;
5042;SDS011;2540;50.928;6.856;2023-07-09T05:49:15;8.40;;;5.47;;
5042;SDS011;2540;50.928;6.856;2023-07-09T05:51:40;11.60;;;5.20;;
5042;SDS011;2540;50.928;6.856;2023-07-09T05:54:05;9.63;;;5.20;;
5042;SDS011;2540;50.928;6.856;2023-07-09T05:56:31;10.93;;;5.30;;
5042;SDS011;2540;50.928;6.856;2023-07-09T05:58:56;9.33;;;5.60;;
5042;SDS011;2540;50.928;6.856;2023-07-09T06:01:22;11.07;;;5.43;;
5042;SDS011;2540;50.928;6.856;2023-07-09T06:03:48;11.37;;;5.17;;
5042;SDS011;2540;50.928;6.856;2023-07-09T06:06:14;13.70;;;4.90;;
5042;SDS011;2540;50.928;6.856;2023-07-09T06:08:39;17.10;;;5.70;;
5042;SDS011;2540;50.928;6.856;2023-07-09T06:11:04;10.40;;;4.70;;
5042;SDS011;2540;50.928;6.856;2023-07-09T06:13:30;11.40;;;5.57;;
5042;SDS011;2540;50.928;6.856;2023-07-09T06:15:56;12.93;;;5.63;;
5042;SDS011;2540;50.928;6.856;2023-07-09T06:18:22;7.63;;;5.20;;
5042;SDS011;2540;50.928;6.856;2023-07-09T06:20:48;12.10;;;5.37;;
5042;SDS011;2540;50.928;6.856;2023-07-09T06:23:15;11.47;;;5.10;;
5042;SDS011;2540;50.928;6.856;2023-07-09T06:25:40;6.33;;;4.63;;
5042;SDS011;2540;50.928;6.856;2023-07-09T06:28:05;14.23;;;5.50;;
5042;SDS011;2540;50.928;6.856;2023-07-09T06:30:30;16.93;;;5.50;;
5042;SDS011;2540;50.928;6.856;2023-07-09T06:32:56;14.30;;;5.40;;
5042;SDS011;2540;50.928;6.856;2023-07-09T06:35:21;17.13;;;4.77;;
5042;SDS011;2540;50.928;6.856;2023-07-09T06:37:47;10.93;;;4.90;;
5042;SDS011;2540;50.928;6.856;2023-07-09T06:40:12;7.73;;;4.67;;
5042;SDS011;2540;50.928;6.856;2023-07-09T06:42:37;11.20;;;5.23;;
5042;SDS011;2540;50.928;6.856;2023-07-09T06:45:03;9.67;;;4.97;;
5042;SDS011;2540;50.928;6.856;2023-07-09T06:47:29;9.27;;;4.40;;
5042;SDS011;2540;50.928;6.856;2023-07-09T06:49:55;14.70;;;5.20;;
5042;SDS011;2540;50.928;6.856;2023-07-09T06:52:20;8.40;;;5.30;;
5042;SDS011;2540;50.928;6.856;2023-07-09T06:54:45;9.97;;;5.10;;
5042;SDS011;2540;50.928;6.856;2023-07-09T06:57:11;10.10;;;4.70;;
5042;SDS011;2540;50.928;6.856;2023-07-09T06:59:36;8.87;;;4.90;;
5042;SDS011;2540;50.928;6.856;2023-07-09T07:02:02;14.83;;;5.27;;
5042;SDS011;2540;50.928;6.856;2023-07-09T07:04:27;11.03;;;4.43;;
5042;SDS011;2540;50.928;6.856;2023-07-09T07:06:52;14.17;;;5.00;;
5042;SDS011;2540;50.928;6.856;2023-07-09T07:09:20;11.10;;;5.30;;
5042;SDS011;2540;50.928;6.856;2023-07-09T07:11:45;10.00;;;4.60;;
5042;SDS011;2540;50.928;6.856;2023-07-09T07:14:11;9.40;;;4.83;;
5042;SDS011;2540;50.928;6.856;2023-07-09T07:16:36;7.70;;;5.33;;
5042;SDS011;2540;50.928;6.856;2023-07-09T07:19:01;9.50;;;4.43;;
5042;SDS011;2540;50.928;6.856;2023-07-09T07:21:27;10.17;;;5.10;;
5042;SDS011;2540;50.928;6.856;2023-07-09T07:23:52;10.93;;;4.73;;
5042;SDS011;2540;50.928;6.856;2023-07-09T07:26:17;13.83;;;5.70;;
5042;SDS011;2540;50.928;6.856;2023-07-09T07:28:43;12.53;;;5.53;;
5042;SDS011;2540;50.928;6.856;2023-07-09T07:31:08;8.70;;;4.90;;
5042;SDS011;2540;50.928;6.856;2023-07-09T07:33:34;9.37;;;5.47;;
5042;SDS011;2540;50.928;6.856;2023-07-09T07:36:00;9.23;;;5.50;;
5042;SDS011;2540;50.928;6.856;2023-07-09T07:38:25;7.77;;;4.20;;
5042;SDS011;2540;50.928;6.856;2023-07-09T07:40:50;12.10;;;6.13;;
5042;SDS011;2540;50.928;6.856;2023-07-09T07:43:16;8.30;;;4.90;;
5042;SDS011;2540;50.928;6.856;2023-07-09T07:45:41;8.13;;;4.70;;
5042;SDS011;2540;50.928;6.856;2023-07-09T07:48:07;7.67;;;4.30;;
5042;SDS011;2540;50.928;6.856;2023-07-09T07:50:33;9.63;;;4.47;;
5042;SDS011;2540;50.928;6.856;2023-07-09T07:52:58;8.53;;;4.20;;
5042;SDS011;2540;50.928;6.856;2023-07-09T07:55:24;5.83;;;4.40;;
5042;SDS011;2540;50.928;6.856;2023-07-09T07:57:49;9.53;;;4.60;;
5042;SDS011;2540;50.928;6.856;2023-07-09T08:00:15;8.33;;;4.40;;
5042;SDS011;2540;50.928;6.856;2023-07-09T08:02:40;10.63;;;4.80;;
5042;SDS011;2540;50.928;6.856;2023-07-09T08:05:06;6.67;;;4.30;;
5042;SDS011;2540;50.928;6.856;2023-07-09T08:07:31;7.43;;;4.60;;
5042;SDS011;2540;50.928;6.856;2023-07-09T08:09:57;7.90;;;4.33;;
5042;SDS011;2540;50.928;6.856;2023-07-09T08:12:22;13.80;;;5.20;;
5042;SDS011;2540;50.928;6.856;2023-07-09T08:14:47;9.20;;;4.80;;
5042;SDS011;2540;50.928;6.856;2023-07-09T08:17:13;7.17;;;4.57;;
5042;SDS011;2540;50.928;6.856;2023-07-09T08:19:45;8.87;;;5.30;;
5042;SDS011;2540;50.928;6.856;2023-07-09T08:22:11;13.30;;;5.87;;
5042;SDS011;2540;50.928;6.856;2023-07-09T08:24:37;14.13;;;4.40;;
5042;SDS011;2540;50.928;6.856;2023-07-09T08:27:02;10.97;;;4.87;;
5042;SDS011;2540;50.928;6.856;2023-07-09T08:29:28;12.63;;;5.00;;
5042;SDS011;2540;50.928;6.856;2023-07-09T08:31:53;10.27;;;4.50;;
5042;SDS011;2540;50.928;6.856;2023-07-09T08:34:19;11.13;;;4.93;;
5042;SDS011;2540;50.928;6.856;2023-07-09T08:36:44;8.53;;;4.77;;
5042;SDS011;2540;50.928;6.856;2023-07-09T08:39:09;8.30;;;4.63;;
5042;SDS011;2540;50.928;6.856;2023-07-09T08:41:37;6.73;;;5.10;;
5042;SDS011;2540;50.928;6.856;2023-07-09T08:50:13;7.50;;;4.30;;
5042;SDS011;2540;50.928;6.856;2023-07-09T08:52:41;13.20;;;5.33;;
5042;SDS011;2540;50.928;6.856;2023-07-09T08:57:53;8.50;;;4.70;;
5042;SDS011;2540;50.928;6.856;2023-07-09T09:00:35;5.07;;;3.80;;
5042;SDS011;2540;50.928;6.856;2023-07-09T09:03:19;8.77;;;4.60;;
5042;SDS011;2540;50.928;6.856;2023-07-09T09:05:54;7.87;;;4.33;;
5042;SDS011;2540;50.928;6.856;2023-07-09T09:10:48;7.00;;;4.50;;
5042;SDS011;2540;50.928;6.856;2023-07-09T09:13:31;12.67;;;5.10;;
5042;SDS011;2540;50.928;6.856;2023-07-09T09:15:58;6.80;;;4.60;;
5042;SDS011;2540;50.928;6.856;2023-07-09T09:18:26;8.73;;;4.80;;
5042;SDS011;2540;50.928;6.856;2023-07-09T09:20:55;9.40;;;4.87;;
5042;SDS011;2540;50.928;6.856;2023-07-09T09:23:23;10.60;;;4.90;;
5042;SDS011;2540;50.928;6.856;2023-07-09T09:25:54;5.93;;;4.60;;
5042;SDS011;2540;50.928;6.856;2023-07-09T09:28:20;7.87;;;5.33;;
5042;SDS011;2540;50.928;6.856;2023-07-09T09:30:47;8.83;;;4.97;;
5042;SDS011;2540;50.928;6.856;2023-07-09T09:33:12;7.70;;;4.70;;
5042;SDS011;2540;50.928;6.856;2023-07-09T09:35:42;6.77;;;4.70;;
5042;SDS011;2540;50.928;6.856;2023-07-09T09:38:12;9.60;;;4.60;;
5042;SDS011;2540;50.928;6.856;2023-07-09T09:40:40;11.17;;;5.13;;
5042;SDS011;2540;50.928;6.856;2023-07-09T09:43:16;10.00;;;4.90;;
5042;SDS011;2540;50.928;6.856;2023-07-09T09:45:45;9.47;;;4.83;;
5042;SDS011;2540;50.928;6.856;2023-07-09T09:48:29;5.90;;;4.40;;
5042;SDS011;2540;50.928;6.856;2023-07-09T09:50:55;9.77;;;4.60;;
5042;SDS011;2540;50.928;6.856;2023-07-09T09:53:25;11.80;;;4.73;;
5042;SDS011;2540;50.928;6.856;2023-07-09T09:55:51;8.03;;;5.13;;
5042;SDS011;2540;50.928;6.856;2023-07-09T09:58:18;12.30;;;5.00;;
5042;SDS011;2540;50.928;6.856;2023-07-09T10:00:48;9.03;;;5.47;;
5042;SDS011;2540;50.928;6.856;2023-07-09T10:03:17;12.73;;;5.80;;
5042;SDS011;2540;50.928;6.856;2023-07-09T10:05:43;6.60;;;4.70;;
5042;SDS011;2540;50.928;6.856;2023-07-09T10:10:50;13.60;;;5.00;;
5042;SDS011;2540;50.928;6.856;2023-07-09T10:13:26;5.90;;;4.50;;
5042;SDS011;2540;50.928;6.856;2023-07-09T10:18:53;7.03;;;4.57;;
5042;SDS011;2540;50.928;6.856;2023-07-09T10:21:27;9.60;;;4.60;;
5042;SDS011;2540;50.928;6.856;2023-07-09T10:26:57;7.37;;;4.50;;
5042;SDS011;2540;50.928;6.856;2023-07-09T10:34:57;9.50;;;4.70;;
5042;SDS011;2540;50.928;6.856;2023-07-09T10:40:51;7.57;;;4.97;;
5042;SDS011;2540;50.928;6.856;2023-07-09T10:43:29;10.40;;;4.50;;
5042;SDS011;2540;50.928;6.856;2023-07-09T10:46:31;11.00;;;5.03;;
5042;SDS011;2540;50.928;6.856;2023-07-09T10:48:58;9.47;;;4.50;;
5042;SDS011;2540;50.928;6.856;2023-07-09T10:51:31;8.43;;;4.90;;
5042;SDS011;2540;50.928;6.856;2023-07-09T10:53:58;6.43;;;4.40;;
5042;SDS011;2540;50.928;6.856;2023-07-09T10:56:45;8.03;;;4.60;;
5042;SDS011;2540;50.928;6.856;2023-07-09T11:01:57;7.00;;;4.93;;
5042;SDS011;2540;50.928;6.856;2023-07-09T11:04:29;10.90;;;4.60;;
5042;SDS011;2540;50.928;6.856;2023-07-09T11:06:59;7.70;;;4.50;;
5042;SDS011;2540;50.928;6.856;2023-07-09T11:09:32;12.10;;;4.17;;
5042;SDS011;2540;50.928;6.856;2023-07-09T11:12:06;10.83;;;4.90;;
5042;SDS011;2540;50.928;6.856;2023-07-09T11:17:12;9.30;;;4.73;;
5042;SDS011;2540;50.928;6.856;2023-07-09T11:19:41;8.73;;;4.90;;
5042;SDS011;2540;50.928;6.856;2023-07-09T11:22:16;8.30;;;4.30;;
5042;SDS011;2540;50.928;6.856;2023-07-09T11:24:47;8.13;;;5.03;;
5042;SDS011;2540;50.928;6.856;2023-07-09T11:27:17;5.93;;;4.30;;
5042;SDS011;2540;50.928;6.856;2023-07-09T11:29:46;8.37;;;4.70;;
5042;SDS011;2540;50.928;6.856;2023-07-09T11:32:17;7.50;;;4.20;;
5042;SDS011;2540;50.928;6.856;2023-07-09T11:34:45;6.47;;;4.13;;
5042;SDS011;2540;50.928;6.856;2023-07-09T11:37:12;9.67;;;4.23;;
5042;SDS011;2540;50.928;6.856;2023-07-09T11:42:03;5.73;;;4.30;;
5042;SDS011;2540;50.928;6.856;2023-07-09T11:44:30;5.30;;;4.20;;
5042;SDS011;2540;50.928;6.856;2023-07-09T11:47:18;6.50;;;4.20;;
5042;SDS011;2540;50.928;6.856;2023-07-09T11:50:00;4.67;;;3.60;;
5042;SDS011;2540;50.928;6.856;2023-07-09T11:55:16;7.30;;;4.40;;
5042;SDS011;2540;50.928;6.856;2023-07-09T11:57:52;5.50;;;4.10;;
5042;SDS011;2540;50.928;6.856;2023-07-09T12:00:18;10.17;;;3.73;;
5042;SDS011;2540;50.928;6.856;2023-07-09T12:02:44;9.67;;;4.40;;
5042;SDS011;2540;50.928;6.856;2023-07-09T12:05:09;8.57;;;3.70;;
5042;SDS011;2540;50.928;6.856;2023-07-09T12:07:35;3.77;;;3.13;;
5042;SDS011;2540;50.928;6.856;2023-07-09T12:10:02;9.03;;;3.60;;
5042;SDS011;2540;50.928;6.856;2023-07-09T12:12:28;3.63;;;2.97;;
5042;SDS011;2540;50.928;6.856;2023-07-09T12:14:54;4.77;;;3.20;;
5042;SDS011;2540;50.928;6.856;2023-07-09T12:17:22;7.07;;;3.87;;
5042;SDS011;2540;50.928;6.856;2023-07-09T12:19:50;6.40;;;3.47;;
5042;SDS011;2540;50.928;6.856;2023-07-09T12:22:17;10.93;;;3.67;;
5042;SDS011;2540;50.928;6.856;2023-07-09T12:24:45;8.60;;;4.13;;
5042;SDS011;2540;50.928;6.856;2023-07-09T12:29:55;6.47;;;3.80;;
5042;SDS011;2540;50.928;6.856;2023-07-09T12:32:21;6.00;;;3.23;;
5042;SDS011;2540;50.928;6.856;2023-07-09T12:34:52;12.13;;;3.33;;
5042;SDS011;2540;50.928;6.856;2023-07-09T12:37:18;13.60;;;4.23;;
5042;SDS011;2540;50.928;6.856;2023-07-09T12:39:45;8.17;;;4.37;;
5042;SDS011;2540;50.928;6.856;2023-07-09T12:42:16;12.03;;;4.00;;
5042;SDS011;2540;50.928;6.856;2023-07-09T12:44:43;6.60;;;3.40;;
5042;SDS011;2540;50.928;6.856;2023-07-09T12:47:12;5.60;;;3.20;;
5042;SDS011;2540;50.928;6.856;2023-07-09T12:49:40;9.70;;;3.87;;
5042;SDS011;2540;50.928;6.856;2023-07-09T12:52:08;5.40;;;3.93;;
5042;SDS011;2540;50.928;6.856;2023-07-09T12:54:37;5.33;;;3.30;;
5042;SDS011;2540;50.928;6.856;2023-07-09T12:57:03;5.87;;;3.20;;
5042;SDS011;2540;50.928;6.856;2023-07-09T12:59:39;8.23;;;4.10;;
5042;SDS011;2540;50.928;6.856;2023-07-09T13:02:17;7.67;;;3.30;;
5042;SDS011;2540;50.928;6.856;2023-07-09T13:04:48;7.60;;;3.70;;
5042;SDS011;2540;50.928;6.856;2023-07-09T13:09:48;6.40;;;4.07;;
5042;SDS011;2540;50.928;6.856;2023-07-09T13:12:14;5.80;;;3.50;;
5042;SDS011;2540;50.928;6.856;2023-07-09T13:14:40;5.53;;;3.50;;
5042;SDS011;2540;50.928;6.856;2023-07-09T13:17:06;7.10;;;3.67;;
5042;SDS011;2540;50.928;6.856;2023-07-09T13:19:34;5.53;;;3.07;;
5042;SDS011;2540;50.928;6.856;2023-07-09T13:21:59;5.30;;;3.50;;
5042;SDS011;2540;50.928;6.856;2023-07-09T13:24:27;11.43;;;4.23;;
5042;SDS011;2540;50.928;6.856;2023-07-09T13:26:54;7.80;;;3.67;;
5042;SDS011;2540;50.928;6.856;2023-07-09T13:29:20;4.37;;;3.30;;
5042;SDS011;2540;50.928;6.856;2023-07-09T13:31:46;7.97;;;4.00;;
5042;SDS011;2540;50.928;6.856;2023-07-09T13:34:22;6.00;;;3.70;;
5042;SDS011;2540;50.928;6.856;2023-07-09T13:36:49;11.93;;;4.10;;
5042;SDS011;2540;50.928;6.856;2023-07-09T13:39:15;7.63;;;3.57;;
5042;SDS011;2540;50.928;6.856;2023-07-09T13:41:44;7.70;;;3.57;;
5042;SDS011;2540;50.928;6.856;2023-07-09T13:44:21;6.00;;;2.97;;
5042;SDS011;2540;50.928;6.856;2023-07-09T13:46:50;7.23;;;3.90;;
5042;SDS011;2540;50.928;6.856;2023-07-09T13:49:17;16.33;;;3.80;;
5042;SDS011;2540;50.928;6.856;2023-07-09T13:51:44;10.47;;;3.63;;
5042;SDS011;2540;50.928;6.856;2023-07-09T13:54:21;7.07;;;4.13;;
5042;SDS011;2540;50.928;6.856;2023-07-09T13:56:48;8.00;;;4.00;;
5042;SDS011;2540;50.928;6.856;2023-07-09T13:59:16;11.53;;;3.53;;
5042;SDS011;2540;50.928;6.856;2023-07-09T14:01:48;6.60;;;3.70;;
5042;SDS011;2540;50.928;6.856;2023-07-09T14:04:14;5.87;;;3.43;;
5042;SDS011;2540;50.928;6.856;2023-07-09T14:06:41;6.80;;;3.90;;
5042;SDS011;2540;50.928;6.856;2023-07-09T14:09:08;7.47;;;3.60;;
5042;SDS011;2540;50.928;6.856;2023-07-09T14:11:35;5.80;;;3.43;;
5042;SDS011;2540;50.928;6.856;2023-07-09T14:14:04;6.60;;;3.57;;
5042;SDS011;2540;50.928;6.856;2023-07-09T14:16:55;7.13;;;3.40;;
5042;SDS011;2540;50.928;6.856;2023-07-09T14:19:22;14.10;;;4.53;;
5042;SDS011;2540;50.928;6.856;2023-07-09T14:21:48;8.63;;;3.33;;
5042;SDS011;2540;50.928;6.856;2023-07-09T14:24:16;6.30;;;3.70;;
5042;SDS011;2540;50.928;6.856;2023-07-09T14:26:44;8.70;;;3.30;;
5042;SDS011;2540;50.928;6.856;2023-07-09T14:29:11;5.70;;;2.87;;
5042;SDS011;2540;50.928;6.856;2023-07-09T14:31:37;6.60;;;3.30;;
5042;SDS011;2540;50.928;6.856;2023-07-09T14:36:47;25.90;;;4.90;;
5042;SDS011;2540;50.928;6.856;2023-07-09T14:39:13;32.73;;;5.20;;
5042;SDS011;2540;50.928;6.856;2023-07-09T14:41:39;30.07;;;6.07;;
5042;SDS011;2540;50.928;6.856;2023-07-09T14:44:11;51.97;;;5.93;;
5042;SDS011;2540;50.928;6.856;2023-07-09T14:46:40;32.67;;;5.33;;
5042;SDS011;2540;50.928;6.856;2023-07-09T14:49:06;15.93;;;4.40;;
5042;SDS011;2540;50.928;6.856;2023-07-09T14:51:32;7.43;;;4.60;;
5042;SDS011;2540;50.928;6.856;2023-07-09T14:53:57;7.33;;;4.27;;
5042;SDS011;2540;50.928;6.856;2023-07-09T14:56:22;15.70;;;5.10;;
5042;SDS011;2540;50.928;6.856;2023-07-09T14:58:48;11.20;;;5.30;;
5042;SDS011;2540;50.928;6.856;2023-07-09T15:01:14;13.53;;;5.20;;
5042;SDS011;2540;50.928;6.856;2023-07-09T15:03:39;10.70;;;4.57;;
5042;SDS011;2540;50.928;6.856;2023-07-09T15:06:05;9.97;;;4.30;;
5042;SDS011;2540;50.928;6.856;2023-07-09T15:08:31;11.60;;;4.90;;
5042;SDS011;2540;50.928;6.856;2023-07-09T15:10:58;16.30;;;4.83;;
5042;SDS011;2540;50.928;6.856;2023-07-09T15:13:30;7.23;;;4.70;;
5042;SDS011;2540;50.928;6.856;2023-07-09T15:15:57;12.17;;;4.50;;
5042;SDS011;2540;50.928;6.856;2023-07-09T15:18:26;11.67;;;5.67;;
5042;SDS011;2540;50.928;6.856;2023-07-09T15:20:53;8.93;;;6.50;;
5042;SDS011;2540;50.928;6.856;2023-07-09T15:23:20;9.90;;;6.40;;
5042;SDS011;2540;50.928;6.856;2023-07-09T15:25:47;14.40;;;7.60;;
5042;SDS011;2540;50.928;6.856;2023-07-09T15:28:13;13.50;;;7.43;;
5042;SDS011;2540;50.928;6.856;2023-07-09T15:30:39;15.03;;;8.70;;
5042;SDS011;2540;50.928;6.856;2023-07-09T15:33:05;14.87;;;8.17;;
5042;SDS011;2540;50.928;6.856;2023-07-09T15:35:31;15.40;;;8.87;;
5042;SDS011;2540;50.928;6.856;2023-07-09T15:37:58;17.47;;;9.17;;
5042;SDS011;2540;50.928;6.856;2023-07-09T15:40:25;20.87;;;9.83;;
5042;SDS011;2540;50.928;6.856;2023-07-09T15:42:56;16.77;;;9.00;;
5042;SDS011;2540;50.928;6.856;2023-07-09T15:45:23;12.87;;;8.30;;
5042;SDS011;2540;50.928;6.856;2023-07-09T15:47:50;13.33;;;8.10;;
5042;SDS011;2540;50.928;6.856;2023-07-09T15:50:26;15.83;;;8.93;;
5042;SDS011;2540;50.928;6.856;2023-07-09T15:52:52;12.90;;;7.60;;
5042;SDS011;2540;50.928;6.856;2023-07-09T15:55:19;13.80;;;6.73;;
5042;SDS011;2540;50.928;6.856;2023-07-09T15:57:46;13.80;;;6.37;;
5042;SDS011;2540;50.928;6.856;2023-07-09T16:00:34;24.07;;;7.37;;